createdAt,value
2018-05-16T00:00:42.325Z,21.16
2018-05-16T00:01:45.645Z,21.16
2018-05-16T00:02:48.975Z,21.16
2018-05-16T00:03:52.307Z,21.15
2018-05-16T00:04:55.630Z,21.13
2018-05-16T00:05:58.986Z,21.12
2018-05-16T00:07:02.343Z,21.11
2018-05-16T00:08:05.714Z,21.10
2018-05-16T00:09:09.032Z,21.08
2018-05-16T00:10:12.366Z,21.07
2018-05-16T00:11:15.710Z,21.06
2018-05-16T00:12:19.038Z,21.05
2018-05-16T00:13:22.370Z,21.05
2018-05-16T00:14:25.708Z,21.05
2018-05-16T00:15:29.042Z,21.05
2018-05-16T00:16:32.409Z,21.03
2018-05-16T00:17:35.743Z,21.03
2018-05-16T00:18:39.080Z,21.01
2018-05-16T00:19:42.410Z,21.01
2018-05-16T00:20:45.739Z,21.00
2018-05-16T00:21:49.117Z,20.98
2018-05-16T00:22:52.418Z,20.97
2018-05-16T00:23:55.751Z,20.95
2018-05-16T00:24:59.156Z,20.94
2018-05-16T00:26:02.395Z,20.92
2018-05-16T00:27:05.750Z,20.91
2018-05-16T00:28:09.099Z,20.89
2018-05-16T00:29:12.419Z,20.87
2018-05-16T00:30:15.754Z,20.87
2018-05-16T00:31:19.154Z,20.86
2018-05-16T00:32:22.507Z,20.88
2018-05-16T00:33:25.815Z,20.88
2018-05-16T00:34:29.171Z,20.88
2018-05-16T00:35:32.458Z,20.87
2018-05-16T00:36:35.786Z,20.86
2018-05-16T00:37:39.131Z,20.86
2018-05-16T00:38:42.454Z,20.86
2018-05-16T00:39:45.791Z,20.85
2018-05-16T00:40:49.154Z,20.86
2018-05-16T00:41:52.469Z,20.85
2018-05-16T00:42:55.818Z,20.84
2018-05-16T00:43:59.313Z,20.83
2018-05-16T00:45:02.707Z,20.83
2018-05-16T00:46:06.055Z,20.83
2018-05-16T00:47:09.400Z,20.84
2018-05-16T00:48:12.750Z,20.84
2018-05-16T00:49:16.080Z,20.83
2018-05-16T00:50:19.470Z,20.83
2018-05-16T00:51:32.558Z,20.83
2018-05-16T00:52:35.876Z,20.80
2018-05-16T00:53:39.223Z,20.80
2018-05-16T00:54:42.541Z,20.81
2018-05-16T00:55:45.858Z,20.81
2018-05-16T00:56:49.171Z,20.81
2018-05-16T00:57:52.491Z,20.82
2018-05-16T00:58:55.838Z,20.83
2018-05-16T00:59:59.151Z,20.83
2018-05-16T01:01:02.488Z,20.83
2018-05-16T01:02:05.837Z,20.84
2018-05-16T01:03:09.199Z,20.83
2018-05-16T01:04:12.544Z,20.83
2018-05-16T01:05:16.288Z,20.82
2018-05-16T01:06:19.552Z,20.83
2018-05-16T01:07:22.879Z,20.83
2018-05-16T01:08:26.201Z,20.82
2018-05-16T01:09:29.554Z,20.82
2018-05-16T01:10:32.872Z,20.81
2018-05-16T01:11:36.200Z,20.82
2018-05-16T01:12:39.533Z,20.81
2018-05-16T01:13:43.548Z,20.81
2018-05-16T01:14:46.954Z,20.81
2018-05-16T01:15:50.288Z,20.80
2018-05-16T01:16:53.635Z,20.81
2018-05-16T01:17:56.963Z,20.81
2018-05-16T01:19:00.579Z,20.81
2018-05-16T01:20:03.937Z,20.82
2018-05-16T01:21:07.264Z,20.82
2018-05-16T01:22:10.603Z,20.82
2018-05-16T01:23:13.935Z,20.82
2018-05-16T01:24:17.281Z,20.81
2018-05-16T01:25:20.617Z,20.81
2018-05-16T01:26:23.942Z,20.80
2018-05-16T01:27:27.281Z,20.79
2018-05-16T01:28:30.610Z,20.79
2018-05-16T01:29:33.922Z,20.80
2018-05-16T01:30:37.274Z,20.79
2018-05-16T01:31:40.606Z,20.79
2018-05-16T01:32:43.918Z,20.79
2018-05-16T01:33:47.242Z,20.79
2018-05-16T01:34:50.579Z,20.78
2018-05-16T01:35:53.941Z,20.77
2018-05-16T01:36:57.248Z,20.78
2018-05-16T01:38:00.571Z,20.78
2018-05-16T01:39:04.163Z,20.79
2018-05-16T01:40:07.484Z,20.79
2018-05-16T01:41:10.838Z,20.79
2018-05-16T01:42:14.158Z,20.78
2018-05-16T01:43:17.494Z,20.77
2018-05-16T01:44:21.001Z,20.77
2018-05-16T01:45:24.347Z,20.77
2018-05-16T01:46:27.697Z,20.76
2018-05-16T01:47:31.024Z,20.77
2018-05-16T01:48:34.479Z,20.77
2018-05-16T01:49:37.811Z,20.76
2018-05-16T01:50:41.143Z,20.76
2018-05-16T01:51:44.490Z,20.76
2018-05-16T01:52:47.835Z,20.74
2018-05-16T01:53:51.170Z,20.72
2018-05-16T01:54:54.508Z,20.68
2018-05-16T01:55:57.839Z,20.62
2018-05-16T01:57:01.176Z,20.59
2018-05-16T01:58:04.508Z,20.53
2018-05-16T01:59:07.846Z,20.48
2018-05-16T02:00:11.200Z,20.45
2018-05-16T02:01:14.767Z,20.41
2018-05-16T02:02:18.114Z,20.37
2018-05-16T02:03:21.428Z,20.34
2018-05-16T02:04:24.754Z,20.31
2018-05-16T02:05:28.096Z,20.27
2018-05-16T02:06:31.521Z,20.23
2018-05-16T02:07:34.862Z,20.23
2018-05-16T02:08:38.197Z,20.21
2018-05-16T02:09:41.529Z,20.22
2018-05-16T02:10:44.867Z,20.23
2018-05-16T02:11:48.184Z,20.24
2018-05-16T02:12:51.535Z,20.26
2018-05-16T02:13:54.884Z,20.28
2018-05-16T02:14:58.211Z,20.30
2018-05-16T02:16:01.538Z,20.33
2018-05-16T02:17:04.875Z,20.34
2018-05-16T02:18:08.217Z,20.36
2018-05-16T02:19:11.541Z,20.37
2018-05-16T02:20:14.890Z,20.40
2018-05-16T02:21:18.211Z,20.41
2018-05-16T02:22:21.529Z,20.42
2018-05-16T02:23:24.890Z,20.44
2018-05-16T02:24:28.224Z,20.45
2018-05-16T02:25:31.546Z,20.45
2018-05-16T02:26:34.859Z,20.46
2018-05-16T02:27:38.330Z,20.46
2018-05-16T02:28:41.671Z,20.46
2018-05-16T02:29:45.003Z,20.47
2018-05-16T02:30:48.320Z,20.48
2018-05-16T02:31:51.633Z,20.49
2018-05-16T02:32:54.950Z,20.50
2018-05-16T02:33:58.285Z,20.50
2018-05-16T02:35:01.613Z,20.50
2018-05-16T02:36:04.905Z,20.51
2018-05-16T02:37:08.250Z,20.51
2018-05-16T02:38:11.575Z,20.50
2018-05-16T02:39:14.929Z,20.50
2018-05-16T02:40:18.247Z,20.50
2018-05-16T02:41:21.570Z,20.50
2018-05-16T02:42:24.892Z,20.49
2018-05-16T02:43:28.205Z,20.49
2018-05-16T02:44:31.755Z,20.48
2018-05-16T02:45:35.074Z,20.48
2018-05-16T02:46:38.397Z,20.48
2018-05-16T02:47:41.812Z,20.48
2018-05-16T02:48:45.114Z,20.48
2018-05-16T02:49:48.454Z,20.48
2018-05-16T02:50:51.759Z,20.48
2018-05-16T02:51:55.063Z,20.49
2018-05-16T02:52:58.388Z,20.49
2018-05-16T02:54:01.700Z,20.48
2018-05-16T02:55:05.031Z,20.48
2018-05-16T02:56:08.364Z,20.48
2018-05-16T02:57:11.672Z,20.48
2018-05-16T02:58:14.993Z,20.47
2018-05-16T02:59:18.302Z,20.46
2018-05-16T03:00:21.636Z,20.46
2018-05-16T03:01:24.959Z,20.46
2018-05-16T03:02:28.328Z,20.47
2018-05-16T03:03:31.662Z,20.45
2018-05-16T03:04:34.961Z,20.45
2018-05-16T03:05:38.299Z,20.45
2018-05-16T03:06:41.607Z,20.44
2018-05-16T03:07:44.915Z,20.43
2018-05-16T03:08:48.225Z,20.43
2018-05-16T03:09:51.541Z,20.44
2018-05-16T03:10:54.945Z,20.44
2018-05-16T03:11:58.243Z,20.44
2018-05-16T03:13:01.548Z,20.45
2018-05-16T03:14:04.897Z,20.45
2018-05-16T03:15:08.213Z,20.45
2018-05-16T03:16:11.559Z,20.45
2018-05-16T03:17:14.883Z,20.45
2018-05-16T03:18:18.295Z,20.45
2018-05-16T03:19:21.651Z,20.44
2018-05-16T03:20:24.956Z,20.45
2018-05-16T03:21:28.457Z,20.44
2018-05-16T03:22:31.783Z,20.44
2018-05-16T03:23:35.114Z,20.44
2018-05-16T03:24:38.418Z,20.44
2018-05-16T03:25:42.010Z,20.43
2018-05-16T03:26:45.350Z,20.43
2018-05-16T03:27:48.673Z,20.42
2018-05-16T03:28:52.156Z,20.41
2018-05-16T03:29:55.472Z,20.39
2018-05-16T03:30:58.800Z,20.38
2018-05-16T03:32:02.155Z,20.37
2018-05-16T03:33:05.487Z,20.35
2018-05-16T03:34:08.803Z,20.34
2018-05-16T03:35:12.115Z,20.33
2018-05-16T03:36:15.420Z,20.32
2018-05-16T03:37:18.751Z,20.32
2018-05-16T03:38:22.081Z,20.31
2018-05-16T03:39:25.406Z,20.30
2018-05-16T03:40:28.713Z,20.28
2018-05-16T03:41:32.049Z,20.26
2018-05-16T03:42:35.411Z,20.25
2018-05-16T03:43:38.985Z,20.23
2018-05-16T03:44:42.590Z,20.20
2018-05-16T03:45:45.928Z,20.18
2018-05-16T03:46:49.259Z,20.16
2018-05-16T03:47:52.611Z,20.14
2018-05-16T03:48:55.925Z,20.11
2018-05-16T03:49:59.242Z,20.08
2018-05-16T03:51:02.571Z,20.06
2018-05-16T03:52:05.956Z,20.03
2018-05-16T03:53:09.235Z,20.01
2018-05-16T03:54:12.581Z,19.97
2018-05-16T03:55:15.889Z,19.93
2018-05-16T03:56:19.284Z,19.91
2018-05-16T03:57:34.183Z,19.88
2018-05-16T03:58:49.259Z,19.83
2018-05-16T04:00:04.322Z,19.77
2018-05-16T04:01:19.262Z,19.74
2018-05-16T04:02:34.446Z,19.72
2018-05-16T04:03:49.644Z,19.70
2018-05-16T04:04:52.971Z,19.67
2018-05-16T04:05:56.282Z,19.68
2018-05-16T04:06:59.590Z,19.70
2018-05-16T04:08:02.923Z,19.70
2018-05-16T04:09:06.262Z,19.70
2018-05-16T04:10:09.584Z,19.70
2018-05-16T04:11:12.912Z,19.70
2018-05-16T04:12:16.238Z,19.70
2018-05-16T04:13:19.568Z,19.70
2018-05-16T04:14:22.960Z,19.70
2018-05-16T04:15:26.275Z,19.70
2018-05-16T04:16:29.591Z,19.71
2018-05-16T04:17:32.908Z,19.71
2018-05-16T04:18:36.218Z,19.72
2018-05-16T04:19:39.559Z,19.71
2018-05-16T04:20:43.095Z,19.72
2018-05-16T04:21:46.405Z,19.71
2018-05-16T04:22:49.719Z,19.72
2018-05-16T04:23:53.105Z,19.73
2018-05-16T04:24:56.466Z,19.73
2018-05-16T04:25:59.779Z,19.73
2018-05-16T04:27:03.106Z,19.74
2018-05-16T04:28:06.451Z,19.73
2018-05-16T04:29:09.744Z,19.73
2018-05-16T04:30:13.077Z,19.73
2018-05-16T04:31:16.395Z,19.74
2018-05-16T04:32:19.740Z,19.74
2018-05-16T04:33:23.069Z,19.76
2018-05-16T04:34:26.433Z,19.76
2018-05-16T04:35:29.872Z,19.78
2018-05-16T04:36:33.114Z,19.78
2018-05-16T04:37:36.505Z,19.79
2018-05-16T04:38:39.887Z,19.80
2018-05-16T04:39:43.302Z,19.81
2018-05-16T04:40:46.651Z,19.83
2018-05-16T04:41:50.006Z,19.84
2018-05-16T04:42:53.320Z,19.85
2018-05-16T04:43:56.625Z,19.87
2018-05-16T04:45:00.198Z,19.87
2018-05-16T04:46:03.579Z,19.89
2018-05-16T04:47:06.895Z,19.91
2018-05-16T04:48:10.215Z,19.93
2018-05-16T04:49:13.666Z,19.93
2018-05-16T04:50:16.975Z,19.95
2018-05-16T04:51:20.339Z,19.96
2018-05-16T04:52:23.677Z,19.98
2018-05-16T04:53:27.015Z,19.99
2018-05-16T04:54:30.368Z,20.01
2018-05-16T04:55:33.719Z,20.02
2018-05-16T04:56:37.067Z,20.04
2018-05-16T04:57:40.406Z,20.05
2018-05-16T04:58:43.719Z,20.06
2018-05-16T04:59:47.035Z,20.07
2018-05-16T05:00:50.439Z,20.07
2018-05-16T05:01:53.717Z,20.06
2018-05-16T05:02:57.038Z,20.04
2018-05-16T05:04:00.356Z,20.02
2018-05-16T05:05:03.673Z,20.00
2018-05-16T05:06:07.022Z,19.99
2018-05-16T05:07:10.361Z,19.97
2018-05-16T05:08:13.710Z,19.97
2018-05-16T05:09:17.049Z,19.97
2018-05-16T05:10:20.365Z,19.97
2018-05-16T05:11:23.685Z,19.97
2018-05-16T05:12:27.026Z,19.98
2018-05-16T05:13:30.342Z,19.98
2018-05-16T05:14:33.675Z,19.98
2018-05-16T05:15:37.007Z,19.99
2018-05-16T05:16:40.342Z,20.02
2018-05-16T05:17:43.691Z,20.07
2018-05-16T05:18:47.139Z,20.13
2018-05-16T05:19:50.417Z,20.20
2018-05-16T05:20:53.764Z,20.31
2018-05-16T05:21:57.092Z,20.42
2018-05-16T05:23:00.435Z,20.54
2018-05-16T05:24:03.821Z,20.69
2018-05-16T05:25:07.073Z,20.84
2018-05-16T05:26:10.400Z,21.01
2018-05-16T05:27:13.727Z,21.19
2018-05-16T05:28:17.078Z,21.37
2018-05-16T05:29:20.390Z,21.57
2018-05-16T05:30:23.734Z,21.76
2018-05-16T05:31:27.043Z,21.95
2018-05-16T05:32:30.389Z,22.16
2018-05-16T05:33:33.784Z,22.38
2018-05-16T05:34:37.123Z,22.59
2018-05-16T05:35:40.461Z,22.76
2018-05-16T05:36:43.793Z,22.94
2018-05-16T05:37:47.113Z,23.11
2018-05-16T05:38:50.667Z,23.27
2018-05-16T05:39:54.094Z,23.41
2018-05-16T05:40:57.507Z,23.58
2018-05-16T05:42:00.834Z,23.76
2018-05-16T05:43:04.178Z,23.93
2018-05-16T05:44:07.531Z,24.10
2018-05-16T05:45:11.054Z,24.24
2018-05-16T05:46:14.397Z,24.34
2018-05-16T05:47:17.725Z,24.41
2018-05-16T05:48:21.045Z,24.47
2018-05-16T05:49:24.395Z,24.52
2018-05-16T05:50:27.750Z,24.61
2018-05-16T05:51:31.191Z,24.71
2018-05-16T05:52:34.566Z,24.83
2018-05-16T05:53:37.914Z,24.96
2018-05-16T05:54:41.259Z,25.06
2018-05-16T05:55:44.588Z,25.16
2018-05-16T05:56:48.003Z,25.25
2018-05-16T05:57:51.343Z,25.36
2018-05-16T05:58:54.695Z,25.50
2018-05-16T05:59:58.281Z,25.65
2018-05-16T06:01:01.608Z,25.82
2018-05-16T06:02:04.915Z,25.98
2018-05-16T06:03:08.244Z,26.10
2018-05-16T06:04:11.562Z,26.22
2018-05-16T06:05:14.898Z,26.35
2018-05-16T06:06:18.439Z,26.48
2018-05-16T06:07:21.760Z,26.58
2018-05-16T06:08:25.089Z,26.68
2018-05-16T06:09:28.888Z,26.80
2018-05-16T06:10:32.262Z,26.89
2018-05-16T06:11:35.653Z,26.99
2018-05-16T06:12:39.160Z,27.10
2018-05-16T06:13:42.418Z,27.20
2018-05-16T06:14:45.735Z,27.28
2018-05-16T06:15:49.144Z,27.38
2018-05-16T06:16:52.466Z,27.48
2018-05-16T06:17:55.787Z,27.57
2018-05-16T06:18:59.102Z,27.69
2018-05-16T06:20:02.422Z,27.81
2018-05-16T06:21:05.815Z,27.93
2018-05-16T06:22:09.177Z,28.07
2018-05-16T06:23:12.532Z,28.21
2018-05-16T06:24:15.838Z,28.33
2018-05-16T06:25:19.155Z,28.44
2018-05-16T06:26:22.507Z,28.51
2018-05-16T06:27:25.903Z,28.57
2018-05-16T06:28:29.274Z,28.57
2018-05-16T06:30:13.374Z,28.57
2018-05-16T06:31:16.694Z,28.65
2018-05-16T06:32:20.022Z,28.72
2018-05-16T06:33:23.360Z,28.77
2018-05-16T06:34:26.683Z,28.81
2018-05-16T06:35:30.017Z,28.90
2018-05-16T06:36:33.342Z,29.00
2018-05-16T06:37:36.681Z,29.12
2018-05-16T06:38:39.999Z,29.26
2018-05-16T06:39:43.330Z,29.42
2018-05-16T06:40:46.650Z,29.56
2018-05-16T06:41:49.976Z,29.71
2018-05-16T06:42:53.315Z,29.84
2018-05-16T06:43:56.635Z,29.97
2018-05-16T06:44:59.934Z,30.09
2018-05-16T06:46:03.472Z,30.22
2018-05-16T06:47:06.831Z,30.33
2018-05-16T06:48:10.161Z,30.42
2018-05-16T06:49:13.474Z,30.51
2018-05-16T06:50:16.841Z,30.58
2018-05-16T06:51:20.162Z,30.65
2018-05-16T06:52:23.504Z,30.69
2018-05-16T06:53:26.842Z,30.76
2018-05-16T06:54:30.151Z,30.82
2018-05-16T06:55:33.470Z,30.86
2018-05-16T06:56:36.800Z,30.86
2018-05-16T06:57:40.116Z,30.84
2018-05-16T06:58:43.464Z,30.78
2018-05-16T06:59:46.996Z,30.71
2018-05-16T07:00:50.311Z,30.64
2018-05-16T07:01:53.632Z,30.55
2018-05-16T07:02:56.977Z,30.47
2018-05-16T07:04:00.419Z,30.31
2018-05-16T07:05:03.693Z,30.10
2018-05-16T07:06:07.004Z,29.85
2018-05-16T07:07:10.680Z,29.63
2018-05-16T07:08:14.001Z,29.41
2018-05-16T07:09:17.333Z,29.22
2018-05-16T07:10:20.662Z,29.09
2018-05-16T07:11:23.976Z,28.94
2018-05-16T07:12:27.305Z,28.77
2018-05-16T07:13:30.722Z,28.63
2018-05-16T07:14:34.008Z,28.49
2018-05-16T07:15:37.332Z,28.34
2018-05-16T07:16:40.652Z,28.17
2018-05-16T07:17:43.964Z,28.00
2018-05-16T07:18:47.343Z,27.83
2018-05-16T07:19:50.695Z,27.68
2018-05-16T07:20:54.040Z,27.50
2018-05-16T07:21:57.433Z,27.30
2018-05-16T07:23:00.761Z,27.10
2018-05-16T07:24:04.221Z,26.92
2018-05-16T07:25:07.732Z,26.78
2018-05-16T07:26:11.035Z,26.65
2018-05-16T07:27:14.389Z,26.56
2018-05-16T07:28:17.740Z,26.47
2018-05-16T07:29:21.057Z,26.41
2018-05-16T07:30:24.443Z,26.35
2018-05-16T07:31:27.776Z,26.30
2018-05-16T07:32:31.154Z,26.24
2018-05-16T07:33:34.406Z,26.18
2018-05-16T07:34:37.769Z,26.11
2018-05-16T07:35:41.111Z,26.06
2018-05-16T07:36:44.463Z,26.01
2018-05-16T07:37:47.778Z,25.96
2018-05-16T07:38:51.127Z,25.91
2018-05-16T07:39:54.493Z,25.86
2018-05-16T07:40:57.867Z,25.82
2018-05-16T07:42:01.182Z,25.74
2018-05-16T07:43:04.520Z,25.67
2018-05-16T07:44:07.844Z,25.63
2018-05-16T07:45:11.180Z,25.56
2018-05-16T07:46:14.751Z,25.51
2018-05-16T07:47:18.080Z,25.45
2018-05-16T07:48:21.399Z,25.36
2018-05-16T07:49:24.723Z,25.28
2018-05-16T07:50:28.055Z,25.22
2018-05-16T07:51:31.379Z,25.16
2018-05-16T07:52:34.753Z,25.12
2018-05-16T07:53:38.061Z,25.08
2018-05-16T07:54:41.390Z,25.07
2018-05-16T07:55:44.744Z,25.05
2018-05-16T07:56:48.090Z,25.05
2018-05-16T07:57:51.411Z,25.05
2018-05-16T07:58:54.759Z,25.05
2018-05-16T07:59:58.083Z,25.05
2018-05-16T08:01:01.409Z,25.04
2018-05-16T08:02:04.831Z,25.02
2018-05-16T08:03:08.244Z,24.99
2018-05-16T08:04:11.485Z,24.94
2018-05-16T08:05:14.787Z,24.88
2018-05-16T08:06:18.137Z,24.80
2018-05-16T08:07:21.517Z,24.73
2018-05-16T08:08:24.851Z,24.69
2018-05-16T08:09:28.201Z,24.67
2018-05-16T08:10:31.499Z,24.65
2018-05-16T08:11:34.851Z,24.64
2018-05-16T08:12:38.195Z,24.64
2018-05-16T08:13:41.516Z,24.64
2018-05-16T08:14:44.851Z,24.66
2018-05-16T08:15:48.168Z,24.68
2018-05-16T08:16:51.520Z,24.71
2018-05-16T08:17:54.862Z,24.75
2018-05-16T08:18:58.199Z,24.78
2018-05-16T08:20:01.630Z,24.83
2018-05-16T08:21:04.973Z,24.90
2018-05-16T08:22:08.346Z,24.97
2018-05-16T08:23:11.671Z,25.06
2018-05-16T08:24:16.281Z,25.14
2018-05-16T08:25:19.596Z,25.21
2018-05-16T08:26:22.919Z,25.28
2018-05-16T08:27:26.266Z,25.33
2018-05-16T08:28:29.604Z,25.36
2018-05-16T08:29:32.921Z,25.37
2018-05-16T08:30:36.243Z,25.38
2018-05-16T08:31:39.590Z,25.38
2018-05-16T08:32:42.894Z,25.40
2018-05-16T08:33:46.268Z,25.42
2018-05-16T08:34:49.574Z,25.44
2018-05-16T08:35:52.892Z,25.47
2018-05-16T08:36:56.280Z,25.52
2018-05-16T08:37:59.608Z,25.56
2018-05-16T08:39:02.989Z,25.63
2018-05-16T08:40:06.353Z,25.69
2018-05-16T08:41:09.756Z,25.77
2018-05-16T08:42:13.062Z,25.84
2018-05-16T08:43:16.388Z,25.88
2018-05-16T08:44:19.718Z,25.92
2018-05-16T08:45:23.029Z,25.92
2018-05-16T08:46:26.548Z,25.90
2018-05-16T08:47:29.858Z,25.85
2018-05-16T08:48:33.192Z,25.79
2018-05-16T08:49:36.959Z,25.74
2018-05-16T08:50:40.272Z,25.69
2018-05-16T08:51:43.590Z,25.65
2018-05-16T08:52:46.908Z,25.63
2018-05-16T08:53:50.228Z,25.63
2018-05-16T08:54:53.562Z,25.64
2018-05-16T08:55:56.916Z,25.64
2018-05-16T08:57:00.244Z,25.63
2018-05-16T08:58:03.563Z,25.63
2018-05-16T08:59:06.903Z,25.63
2018-05-16T09:00:10.245Z,25.64
2018-05-16T09:01:13.581Z,25.63
2018-05-16T09:02:16.904Z,25.62
2018-05-16T09:03:20.221Z,25.59
2018-05-16T09:04:23.544Z,25.56
2018-05-16T09:05:26.889Z,25.57
2018-05-16T09:06:30.237Z,25.58
2018-05-16T09:07:33.538Z,25.60
2018-05-16T09:08:36.882Z,25.60
2018-05-16T09:09:40.193Z,25.60
2018-05-16T09:10:43.537Z,25.62
2018-05-16T09:11:46.852Z,25.65
2018-05-16T09:12:50.176Z,25.68
2018-05-16T09:13:53.482Z,25.72
2018-05-16T09:14:56.795Z,25.75
2018-05-16T09:16:00.142Z,25.76
2018-05-16T09:17:03.491Z,25.77
2018-05-16T09:18:06.819Z,25.77
2018-05-16T09:19:10.159Z,25.77
2018-05-16T09:20:13.462Z,25.77
2018-05-16T09:21:16.817Z,25.78
2018-05-16T09:22:20.320Z,25.77
2018-05-16T09:23:23.726Z,25.78
2018-05-16T09:24:27.066Z,25.79
2018-05-16T09:25:30.849Z,25.75
2018-05-16T09:26:34.166Z,25.68
2018-05-16T09:27:37.474Z,25.61
2018-05-16T09:28:40.804Z,25.54
2018-05-16T09:29:44.141Z,25.48
2018-05-16T09:30:47.451Z,25.46
2018-05-16T09:31:50.790Z,25.48
2018-05-16T09:32:54.121Z,25.48
2018-05-16T09:33:57.416Z,25.48
2018-05-16T09:35:00.731Z,25.47
2018-05-16T09:36:04.075Z,25.45
2018-05-16T09:37:07.709Z,25.44
2018-05-16T09:38:11.032Z,25.39
2018-05-16T09:39:14.368Z,25.36
2018-05-16T09:40:17.783Z,25.34
2018-05-16T09:41:21.026Z,25.32
2018-05-16T09:42:24.420Z,25.31
2018-05-16T09:43:27.659Z,25.27
2018-05-16T09:44:30.975Z,25.24
2018-05-16T09:45:34.388Z,25.23
2018-05-16T09:46:38.461Z,25.21
2018-05-16T09:47:41.807Z,25.24
2018-05-16T09:48:45.185Z,25.25
2018-05-16T09:49:48.509Z,25.26
2018-05-16T09:50:51.831Z,25.28
2018-05-16T09:51:55.153Z,25.29
2018-05-16T09:52:58.487Z,25.31
2018-05-16T09:54:01.808Z,25.34
2018-05-16T09:55:05.119Z,25.35
2018-05-16T09:56:08.472Z,25.36
2018-05-16T09:57:12.615Z,25.37
2018-05-16T09:58:15.958Z,25.40
2018-05-16T09:59:19.271Z,25.46
2018-05-16T10:00:28.105Z,25.53
2018-05-16T10:01:31.423Z,25.60
2018-05-16T10:02:34.801Z,25.66
2018-05-16T10:03:38.149Z,25.69
2018-05-16T10:04:41.486Z,25.69
2018-05-16T10:05:45.032Z,25.66
2018-05-16T10:06:48.350Z,25.65
2018-05-16T10:07:51.665Z,25.65
2018-05-16T10:08:55.056Z,25.65
2018-05-16T10:09:58.340Z,25.65
2018-05-16T10:11:01.660Z,25.65
2018-05-16T10:12:04.999Z,25.66
2018-05-16T10:13:08.355Z,25.69
2018-05-16T10:14:11.708Z,25.72
2018-05-16T10:15:15.034Z,25.70
2018-05-16T10:16:18.358Z,25.67
2018-05-16T10:17:21.666Z,25.64
2018-05-16T10:18:25.005Z,25.63
2018-05-16T10:19:28.358Z,25.62
2018-05-16T10:20:31.689Z,25.60
2018-05-16T10:21:35.033Z,25.57
2018-05-16T10:22:38.366Z,25.55
2018-05-16T10:23:41.795Z,25.52
2018-05-16T10:24:45.051Z,25.50
2018-05-16T10:25:48.388Z,25.50
2018-05-16T10:26:51.701Z,25.50
2018-05-16T10:27:55.046Z,25.50
2018-05-16T10:28:58.363Z,25.49
2018-05-16T10:30:01.778Z,25.47
2018-05-16T10:31:05.066Z,25.47
2018-05-16T10:32:08.381Z,25.47
2018-05-16T10:33:11.692Z,25.48
2018-05-16T10:34:15.019Z,25.50
2018-05-16T10:35:18.575Z,25.50
2018-05-16T10:36:21.645Z,25.49
2018-05-16T10:37:24.949Z,25.46
2018-05-16T10:38:28.296Z,25.44
2018-05-16T10:39:31.646Z,25.42
2018-05-16T10:40:34.963Z,25.43
2018-05-16T10:41:38.266Z,25.47
2018-05-16T10:42:41.579Z,25.50
2018-05-16T10:43:44.887Z,25.54
2018-05-16T10:44:48.198Z,25.55
2018-05-16T10:45:51.521Z,25.56
2018-05-16T10:46:54.972Z,25.56
2018-05-16T10:47:58.274Z,25.57
2018-05-16T10:49:01.594Z,25.58
2018-05-16T10:50:04.963Z,25.57
2018-05-16T10:51:08.306Z,25.56
2018-05-16T10:52:11.688Z,25.56
2018-05-16T10:53:14.933Z,25.53
2018-05-16T10:54:18.280Z,25.51
2018-05-16T10:55:21.599Z,25.50
2018-05-16T10:56:24.939Z,25.49
2018-05-16T10:57:28.443Z,25.46
2018-05-16T10:58:31.762Z,25.43
2018-05-16T10:59:35.112Z,25.35
2018-05-16T11:00:38.758Z,25.30
2018-05-16T11:01:42.094Z,25.26
2018-05-16T11:02:45.555Z,25.25
2018-05-16T11:03:48.913Z,25.26
2018-05-16T11:04:52.229Z,25.25
2018-05-16T11:05:55.574Z,25.27
2018-05-16T11:06:58.922Z,25.29
2018-05-16T11:08:02.316Z,25.31
2018-05-16T11:09:06.616Z,25.33
2018-05-16T11:10:09.936Z,25.35
2018-05-16T11:11:13.259Z,25.36
2018-05-16T11:12:16.727Z,25.35
2018-05-16T11:13:19.985Z,25.36
2018-05-16T11:14:23.287Z,25.33
2018-05-16T11:15:26.623Z,25.27
2018-05-16T11:16:29.949Z,25.17
2018-05-16T11:17:33.548Z,25.12
2018-05-16T11:18:36.857Z,25.07
2018-05-16T11:19:40.353Z,25.03
2018-05-16T11:20:43.681Z,25.04
2018-05-16T11:21:46.989Z,25.06
2018-05-16T11:22:50.327Z,25.09
2018-05-16T11:23:53.638Z,25.13
2018-05-16T11:24:56.950Z,25.19
2018-05-16T11:26:00.286Z,25.25
2018-05-16T11:27:03.605Z,25.30
2018-05-16T11:28:07.373Z,25.35
2018-05-16T11:29:12.560Z,25.38
2018-05-16T11:30:16.837Z,25.44
2018-05-16T11:31:20.171Z,25.47
2018-05-16T11:32:23.490Z,25.48
2018-05-16T11:33:26.824Z,25.52
2018-05-16T11:34:30.147Z,25.56
2018-05-16T11:35:33.472Z,25.59
2018-05-16T11:36:36.781Z,25.61
2018-05-16T11:37:40.125Z,25.64
2018-05-16T11:38:43.444Z,25.65
2018-05-16T11:39:46.784Z,25.64
2018-05-16T11:40:50.113Z,25.64
2018-05-16T11:41:53.422Z,25.61
2018-05-16T11:42:56.734Z,25.60
2018-05-16T11:44:00.073Z,25.61
2018-05-16T11:45:03.391Z,25.63
2018-05-16T11:46:06.699Z,25.66
2018-05-16T11:47:10.287Z,25.69
2018-05-16T11:48:13.611Z,25.69
2018-05-16T11:49:16.954Z,25.68
2018-05-16T11:50:20.274Z,25.67
2018-05-16T11:51:23.593Z,25.67
2018-05-16T11:52:26.913Z,25.68
2018-05-16T11:53:30.235Z,25.72
2018-05-16T11:54:33.769Z,25.76
2018-05-16T11:55:37.284Z,25.80
2018-05-16T11:56:40.604Z,25.82
2018-05-16T11:57:43.909Z,25.85
2018-05-16T11:58:47.233Z,25.86
2018-05-16T11:59:50.567Z,25.88
2018-05-16T12:00:53.871Z,25.90
2018-05-16T12:01:57.182Z,25.92
2018-05-16T12:03:00.501Z,25.94
2018-05-16T12:04:03.815Z,25.94
2018-05-16T12:05:07.150Z,25.92
2018-05-16T12:06:10.486Z,25.90
2018-05-16T12:07:13.830Z,25.89
2018-05-16T12:08:17.125Z,25.90
2018-05-16T12:09:20.450Z,25.92
2018-05-16T12:10:23.796Z,25.93
2018-05-16T12:11:27.098Z,25.94
2018-05-16T12:12:30.425Z,25.93
2018-05-16T12:13:33.731Z,25.91
2018-05-16T12:14:37.058Z,25.87
2018-05-16T12:15:40.391Z,25.83
2018-05-16T12:16:43.690Z,25.78
2018-05-16T12:17:47.011Z,25.75
2018-05-16T12:18:50.328Z,25.72
2018-05-16T12:19:53.684Z,25.69
2018-05-16T12:20:57.038Z,25.66
2018-05-16T12:22:00.351Z,25.65
2018-05-16T12:23:03.681Z,25.63
2018-05-16T12:24:06.997Z,25.60
2018-05-16T12:25:10.304Z,25.55
2018-05-16T12:26:13.674Z,25.51
2018-05-16T12:27:17.025Z,25.47
2018-05-16T12:28:20.352Z,25.43
2018-05-16T12:29:23.759Z,25.37
2018-05-16T12:30:27.063Z,25.34
2018-05-16T12:31:30.518Z,25.30
2018-05-16T12:32:33.832Z,25.27
2018-05-16T12:33:37.163Z,25.28
2018-05-16T12:34:40.483Z,25.27
2018-05-16T12:35:43.789Z,25.24
2018-05-16T12:36:47.114Z,25.22
2018-05-16T12:37:50.438Z,25.21
2018-05-16T12:38:53.740Z,25.22
2018-05-16T12:39:57.068Z,25.24
2018-05-16T12:41:00.381Z,25.28
2018-05-16T12:42:03.748Z,25.32
2018-05-16T12:43:22.897Z,25.34
2018-05-16T12:44:26.208Z,25.31
2018-05-16T12:45:29.638Z,25.28
2018-05-16T12:46:33.054Z,25.25
2018-05-16T12:47:36.535Z,25.23
2018-05-16T12:48:41.150Z,25.20
2018-05-16T12:49:44.469Z,25.14
2018-05-16T12:50:47.787Z,25.09
2018-05-16T12:51:51.098Z,25.03
2018-05-16T12:52:54.514Z,24.97
2018-05-16T12:53:57.908Z,24.93
2018-05-16T12:55:01.216Z,24.91
2018-05-16T12:56:04.562Z,24.89
2018-05-16T12:57:07.859Z,24.87
2018-05-16T12:58:11.196Z,24.85
2018-05-16T12:59:14.513Z,24.85
2018-05-16T13:00:17.853Z,24.85
2018-05-16T13:01:21.196Z,24.85
2018-05-16T13:02:24.571Z,24.84
2018-05-16T13:03:28.243Z,24.84
2018-05-16T13:04:31.568Z,24.85
2018-05-16T13:05:34.932Z,24.88
2018-05-16T13:06:38.230Z,24.93
2018-05-16T13:07:41.537Z,24.95
2018-05-16T13:08:44.880Z,24.93
2018-05-16T13:09:48.191Z,24.91
2018-05-16T13:10:51.551Z,24.90
2018-05-16T13:11:54.843Z,24.88
2018-05-16T13:12:58.208Z,24.86
2018-05-16T13:14:01.483Z,24.86
2018-05-16T13:15:04.788Z,24.84
2018-05-16T13:16:08.090Z,24.84
2018-05-16T13:17:11.400Z,24.88
2018-05-16T13:18:14.740Z,24.92
2018-05-16T13:19:18.069Z,24.94
2018-05-16T13:20:21.392Z,24.94
2018-05-16T13:21:24.734Z,24.92
2018-05-16T13:22:28.007Z,24.89
2018-05-16T13:23:31.342Z,24.86
2018-05-16T13:24:34.776Z,24.84
2018-05-16T13:25:38.081Z,24.84
2018-05-16T13:26:41.390Z,24.86
2018-05-16T13:27:44.688Z,24.89
2018-05-16T13:28:48.034Z,24.93
2018-05-16T13:29:51.382Z,24.95
2018-05-16T13:30:54.674Z,24.95
2018-05-16T13:31:58.000Z,24.95
2018-05-16T13:33:01.354Z,24.96
2018-05-16T13:34:04.685Z,25.00
2018-05-16T13:35:08.023Z,25.06
2018-05-16T13:36:11.525Z,25.13
2018-05-16T13:37:14.783Z,25.20
2018-05-16T13:38:18.168Z,25.28